Terminal Aerodrome Forecast
Issued by NWS Grand Forks, ND

Home | Current Version | Previous Version | Text Only | Print | Product List | Glossary Off
Versions: 1 2 3 4 5 6 7 8 9 10 11 12 13 14 15 16

000
FTUS43 KFGF 292100 AAA
TAFFAR
TAF AMD
KFAR 292147Z 2922/3018 35015KT P6SM SCT024
      TEMPO 2922/2923 BKN022
     FM300000 34012KT P6SM SCT200
     FM300600 12003KT P6SM BKN100=

USA.gov is the U.S. government's official web portal to all federal, state and local government web resources and services.